Have a Safe July 4th! 

Flight Track Log - Related Links

Times and Time Zones

All times are in EDT time to prevent confusion due to time zone crossing. See the EJA695 flight status page for this flight to view local times or setup timezone preferences in your user account.

Time Position Orientation Groundspeed Altitude Reporting Facility
EDT Latitude Longitude Course Direction KTS MPH feet Rate Location/Type
Sat 12:55:33 PM 35.7914 -84.0747 13° North 219 252 5,900  Level Atlanta Center
Sat 12:56:33 PM 35.8558 -84.0567 13° North 150 173 8,500 2,550 Climbing Atlanta Center
Sat 12:57:33 PM 35.9186 -84.0028 35° Northeast 186 214 11,000 2,500 Climbing Atlanta Center
Sat 12:58:33 PM 35.9872 -83.9542 30° Northeast 238 274 13,500 2,350 Climbing Atlanta Center
Sat 12:59:33 PM 36.0542 -83.9078 29° Northeast 258 297 15,700 1,912 Climbing Atlanta Center
Sat 01:00:26 PM 36.1272 -83.8592 28° Northeast 298 343 17,100 1,316 Climbing Indianapolis Center
Sat 01:01:27 PM 36.2161 -83.8411 North 324 373 18,200 1,171 Climbing Indianapolis Center
Sat 01:02:29 PM 36.3061 -83.8244 North 327 376 19,500 1,317 Climbing Indianapolis Center
Sat 01:03:30 PM 36.3969 -83.8083 North 329 379 20,900 1,317 Climbing Indianapolis Center
Sat 01:04:32 PM 36.4889 -83.7928 North 333 383 22,200 1,415 Climbing Indianapolis Center
Sat 01:05:33 PM 36.5978 -83.7744 North 338 389 23,800 1,122 Climbing Indianapolis Center
Sat 01:06:35 PM 36.6931 -83.7603 North 343 395 24,500 585 Climbing Indianapolis Center
Sat 01:07:36 PM 36.7889 -83.7808 350° North 351 404 25,000 244 Climbing Indianapolis Center
Sat 01:08:38 PM 36.8814 -83.8000 351° North 340 391 25,000  Level Indianapolis Center
Sat 01:09:39 PM 36.9761 -83.8214 350° North 342 394 25,000  Level Indianapolis Center
Sat 01:10:41 PM 37.0753 -83.8433 350° North 356 410 25,000  Level Indianapolis Center
Sat 01:11:42 PM 37.1711 -83.8653 350° North 352 405 25,000 -98 Level Indianapolis Center
Sat 01:12:44 PM 37.2633 -83.8850 350° North 336 387 24,800 -488 Descending Indianapolis Center
Sat 01:13:45 PM 37.3581 -83.9069 350° North 345 397 24,000 -390 Descending Indianapolis Center
Sat 01:14:47 PM 37.4678 -83.9317 350° North 343 395 24,000 -435 Level Indianapolis Center
Sat 01:15:49 PM 37.5614 -83.9528 350° North 340 391 23,100 -976 Descending Indianapolis Center
Sat 01:16:50 PM 37.6575 -83.9758 349° North 350 403 22,000 -1,122 Descending Indianapolis Center
Sat 01:17:52 PM 37.7550 -83.9975 350° North 353 406 20,800 -1,210 Descending Indianapolis Center
Sat 01:18:54 PM 37.8517 -84.0206 349° North 352 405 19,500 -1,220 Descending Indianapolis Center
Sat 01:19:55 PM 37.9481 -84.0425 350° North 351 404 18,300 -1,230 Descending Indianapolis Center
Sat 01:20:56 PM 38.0444 -84.0656 349° North 350 403 17,000 -1,317 Descending Indianapolis Center
Sat 01:21:58 PM 38.1572 -84.0883 351° North 351 404 15,600 -1,306 Descending Indianapolis Center
Sat 01:23:00 PM 38.2517 -84.1103 350° North 345 397 14,300 -1,220 Descending Indianapolis Center
Sat 01:24:01 PM 38.3447 -84.1319 350° North 340 391 13,100 -1,073 Descending Indianapolis Center
Sat 01:25:03 PM 38.4361 -84.1542 349° North 334 384 12,100 -488 Descending Indianapolis Center
Sat 01:26:04 PM 38.5194 -84.1831 345° North 319 367 12,100 -537 Level Indianapolis Center
Sat 01:27:06 PM 38.6031 -84.2072 347° North 307 353 11,000 -1,463 Descending Indianapolis Center
Sat 01:28:07 PM 38.6953 -84.2286 350° North 329 379 9,100 -1,756 Descending Indianapolis Center
Sat 01:29:09 PM 38.7794 -84.2511 348° North 317 365 7,400 -1,366 Descending Indianapolis Center
Sat 01:30:10 PM 38.8492 -84.2656 351° North 265 305 6,300 -1,073 Descending Indianapolis Center
Sat 01:31:12 PM 38.9242 -84.2808 351° North 270 311 5,200 -1,415 Descending Indianapolis Center
Sat 01:32:13 PM 39.0103 -84.2997 350° North 267 307 3,400 -911 Descending Indianapolis Center
Sat 01:34:23 PM 39.1167 -84.3500 340° North 182 209 2,300 -726 Descending Cincinnati TRACON
Sat 01:35:23 PM 39.1167 -84.4000 270° West 158 182 1,100 -1,200 Descending Cincinnati TRACON
Sat 01:37:00 PM 39.1033 -84.4186 227° Southwest  Level Estimated

Login

Don't have an account? Register now (free) for customized features, flight alerts, and more!